Elias, Kentucky
Current Conditions -  °F | °C
As of 2:53 PM on Tuesday 21 Oct 2014 (Local Time) from KLOZ Reporting Station
Overcast Overcast  
Wind Chill: 61°   Ceiling: 5000
Heat Index: 61°   Visibility: 10mi
Dew Point: 42°   Wind: 14mph
Humidity: 50%   Direction: 330°NNW
Pressure: 30.03"   Gusts: 22mph
Location:  37.346°N, 83.8503°W
Report Text: KLOZ 211853Z AUTO 33012G19KT 10SM OVC050 16/06 A3003 RMK AO2 SLP164 T01610056
Loading
Personal Weather Stations






























Interactive Weather Map
Tropical Storm Tracking
New forecast layout! Learn more

10-Day Weather Forecast

Advertisements
Track Severe Weather on mobile